Time;durP1;ratioP1;P1;durP2;ratioP2;P2;SDS_P1;SDS_P2;PMS_P1;PMS_P2;Temp;Humidity;BMP_temperature;BMP_pressure;BME280_temperature;BME280_humidity;BME280_pressure;Samples;Min_cycle;Max_cycle;Signal;HPM_P1;HPM_P2
2021/03/31 00:01:47;;;;;;;21.60;12.15;;;23.80;42.20;;;;;;6143135;27;84071;-70
2021/03/31 00:04:48;;;;;;;22.27;13.70;;;23.80;41.60;;;;;;6157443;28;86796;-70
2021/03/31 00:07:48;;;;;;;23.60;13.40;;;23.80;40.90;;;;;;6150644;27;83351;-68
2021/03/31 00:10:49;;;;;;;24.92;12.80;;;23.80;41.10;;;;;;6152964;28;83396;-68
2021/03/31 00:13:49;;;;;;;21.75;12.75;;;23.80;41.60;;;;;;6125060;27;83370;-69
2021/03/31 00:16:50;;;;;;;25.90;13.48;;;23.80;41.70;;;;;;6146904;28;83577;-69
2021/03/31 00:19:50;;;;;;;21.55;13.68;;;23.80;42.30;;;;;;6163068;28;83160;-69
2021/03/31 00:22:51;;;;;;;21.58;12.60;;;23.80;41.90;;;;;;6140990;28;84449;-70
2021/03/31 00:25:52;;;;;;;22.17;13.18;;;23.80;42.00;;;;;;6127724;28;83195;-68
2021/03/31 00:28:52;;;;;;;24.95;13.35;;;23.80;42.10;;;;;;6145324;28;86204;-69
2021/03/31 00:31:53;;;;;;;21.08;12.73;;;23.70;41.50;;;;;;6161889;27;83379;-69
2021/03/31 00:34:53;;;;;;;19.30;12.30;;;23.70;41.90;;;;;;6152163;28;83204;-69
2021/03/31 00:37:54;;;;;;;20.42;12.93;;;23.70;41.80;;;;;;6158713;27;83128;-69
2021/03/31 00:40:54;;;;;;;21.65;12.27;;;23.70;42.10;;;;;;6149098;27;83294;-68
2021/03/31 00:43:55;;;;;;;20.40;11.77;;;23.70;41.80;;;;;;6158788;28;86020;-68
2021/03/31 00:46:55;;;;;;;19.33;12.07;;;23.70;41.70;;;;;;6154123;27;83789;-68
2021/03/31 00:49:56;;;;;;;24.05;13.25;;;23.70;41.60;;;;;;6146243;28;83791;-67
2021/03/31 00:52:57;;;;;;;22.20;12.50;;;23.70;41.60;;;;;;6162904;27;83861;-68
2021/03/31 00:55:57;;;;;;;20.90;11.88;;;23.70;41.40;;;;;;6144609;27;84031;-68
2021/03/31 00:58:58;;;;;;;21.70;12.27;;;23.70;41.00;;;;;;6161962;27;84211;-67
2021/03/31 01:01:59;;;;;;;22.70;13.15;;;23.70;40.70;;;;;;6153436;27;83110;-68
2021/03/31 01:04:59;;;;;;;19.63;11.60;;;23.80;40.50;;;;;;6154684;27;83139;-68
2021/03/31 01:08:00;;;;;;;23.67;12.82;;;23.80;41.40;;;;;;6163000;28;83279;-68
2021/03/31 01:11:00;;;;;;;20.33;12.43;;;23.70;41.00;;;;;;6158100;27;84483;-68
2021/03/31 01:14:01;;;;;;;22.00;12.75;;;23.70;41.40;;;;;;6152568;27;83951;-68
2021/03/31 01:17:01;;;;;;;19.58;11.32;;;23.70;41.40;;;;;;6140299;28;84359;-68
2021/03/31 01:20:02;;;;;;;19.85;11.15;;;23.70;41.40;;;;;;6156677;28;83050;-68
2021/03/31 01:23:02;;;;;;;20.15;12.00;;;23.70;41.40;;;;;;6146993;28;83809;-68
2021/03/31 01:26:03;;;;;;;20.20;11.65;;;23.70;41.60;;;;;;6155902;28;84392;-68
2021/03/31 01:29:03;;;;;;;19.52;11.70;;;23.70;41.40;;;;;;6151734;28;83840;-68
2021/03/31 01:32:04;;;;;;;19.98;12.13;;;23.70;41.40;;;;;;6151818;27;83242;-68
2021/03/31 01:35:05;;;;;;;20.23;12.23;;;23.70;41.10;;;;;;6147749;28;84007;-69
2021/03/31 01:38:05;;;;;;;18.55;12.20;;;23.70;41.40;;;;;;6144812;27;83389;-68
2021/03/31 01:41:06;;;;;;;20.83;12.65;;;23.70;41.10;;;;;;6150625;28;83620;-69
2021/03/31 01:44:06;;;;;;;21.02;12.38;;;23.70;41.10;;;;;;6151325;27;84125;-69
2021/03/31 01:47:07;;;;;;;18.88;12.02;;;23.70;40.90;;;;;;6163096;28;84126;-69
2021/03/31 01:50:07;;;;;;;20.52;12.35;;;23.60;40.70;;;;;;6151938;27;83794;-69
2021/03/31 01:53:08;;;;;;;19.23;12.32;;;23.60;40.30;;;;;;6161395;27;83294;-69
2021/03/31 01:56:09;;;;;;;20.38;12.68;;;23.70;40.30;;;;;;6152147;27;82845;-69
2021/03/31 01:59:09;;;;;;;18.85;12.52;;;23.60;40.60;;;;;;6152450;27;83557;-69
2021/03/31 02:02:10;;;;;;;22.35;11.98;;;23.60;41.20;;;;;;6155005;28;83270;-68
2021/03/31 02:05:10;;;;;;;19.30;12.52;;;23.60;40.80;;;;;;6157965;27;85397;-68
2021/03/31 02:08:11;;;;;;;23.63;12.30;;;23.60;40.90;;;;;;6152467;28;83426;-69
2021/03/31 02:11:11;;;;;;;20.00;11.60;;;23.60;40.50;;;;;;6158516;27;83839;-69
2021/03/31 02:14:12;;;;;;;16.83;11.65;;;23.60;41.10;;;;;;6147776;28;83337;-69
2021/03/31 02:17:12;;;;;;;19.90;13.20;;;23.60;41.00;;;;;;6155254;27;83250;-69
2021/03/31 02:20:13;;;;;;;22.48;12.65;;;23.60;40.20;;;;;;6155490;28;83356;-69
2021/03/31 02:23:13;;;;;;;22.85;12.73;;;23.60;41.10;;;;;;6148677;28;84277;-68
2021/03/31 02:26:14;;;;;;;19.33;12.10;;;23.60;40.60;;;;;;6145474;28;83435;-69
2021/03/31 02:29:14;;;;;;;21.25;11.45;;;23.70;40.40;;;;;;6151726;27;84463;-69
2021/03/31 02:32:15;;;;;;;24.85;12.27;;;23.60;41.10;;;;;;6155235;28;84194;-69
2021/03/31 02:35:16;;;;;;;17.40;11.43;;;23.60;40.90;;;;;;6149394;27;83504;-69
2021/03/31 02:38:16;;;;;;;19.83;12.13;;;23.60;40.70;;;;;;6147934;28;83167;-69
2021/03/31 02:41:17;;;;;;;20.58;12.98;;;23.60;40.70;;;;;;6151704;28;83138;-69
2021/03/31 02:44:17;;;;;;;19.33;11.60;;;23.60;40.90;;;;;;6149889;28;83848;-70
2021/03/31 02:47:18;;;;;;;18.17;11.25;;;23.60;40.60;;;;;;6150712;27;84223;-69
2021/03/31 02:50:18;;;;;;;20.80;11.80;;;23.60;40.70;;;;;;6150767;28;82976;-69
2021/03/31 02:53:19;;;;;;;19.45;11.40;;;23.60;40.60;;;;;;6151753;27;83034;-69
2021/03/31 02:56:19;;;;;;;18.27;12.02;;;23.60;40.70;;;;;;6144354;28;84111;-70
2021/03/31 02:59:20;;;;;;;18.42;12.40;;;23.60;40.80;;;;;;6149530;27;86045;-70
2021/03/31 03:02:20;;;;;;;17.85;11.77;;;23.60;41.40;;;;;;6149245;28;84365;-69
2021/03/31 03:05:21;;;;;;;20.17;12.90;;;23.60;40.80;;;;;;6143990;27;83401;-68
2021/03/31 03:08:22;;;;;;;21.13;12.20;;;23.60;41.40;;;;;;6159597;28;83774;-68
2021/03/31 03:11:22;;;;;;;19.70;11.85;;;23.60;41.00;;;;;;6151096;27;83197;-69
2021/03/31 03:14:23;;;;;;;21.55;12.30;;;23.60;40.60;;;;;;6145806;28;85206;-69
2021/03/31 03:17:23;;;;;;;16.95;10.93;;;23.60;40.70;;;;;;6132562;27;83105;-68
2021/03/31 03:20:24;;;;;;;20.77;11.98;;;23.60;40.10;;;;;;6129038;28;83360;-69
2021/03/31 03:23:24;;;;;;;21.98;11.38;;;23.60;40.10;;;;;;6145022;28;83013;-69
2021/03/31 03:26:25;;;;;;;20.60;11.60;;;23.60;39.60;;;;;;6147531;28;91978;-68
2021/03/31 03:29:25;;;;;;;20.58;12.23;;;23.70;39.50;;;;;;6152230;27;84143;-69
2021/03/31 03:32:26;;;;;;;19.88;12.32;;;23.60;39.40;;;;;;6154959;28;83542;-69
2021/03/31 03:35:26;;;;;;;18.17;11.85;;;23.60;39.40;;;;;;6153569;27;86394;-69
2021/03/31 03:38:27;;;;;;;20.48;12.27;;;23.60;39.40;;;;;;6157082;27;83121;-69
2021/03/31 03:41:28;;;;;;;21.90;12.82;;;23.60;39.50;;;;;;6151960;27;83465;-69
2021/03/31 03:44:28;;;;;;;23.48;13.43;;;23.60;39.50;;;;;;6140438;28;83598;-70
2021/03/31 03:47:29;;;;;;;22.40;12.43;;;23.60;39.50;;;;;;6154007;28;83508;-69
2021/03/31 03:50:29;;;;;;;21.52;11.95;;;23.60;39.50;;;;;;6164196;28;82904;-70
2021/03/31 03:53:30;;;;;;;21.83;13.88;;;23.60;39.40;;;;;;6150130;28;85970;-70
2021/03/31 03:56:30;;;;;;;20.13;12.85;;;23.60;39.40;;;;;;6156579;27;83910;-70
2021/03/31 03:59:31;;;;;;;18.73;12.70;;;23.60;39.40;;;;;;6158074;27;83439;-69
2021/03/31 04:02:32;;;;;;;22.73;12.82;;;23.60;39.40;;;;;;6132125;27;83561;-69
2021/03/31 04:05:32;;;;;;;23.55;12.82;;;23.60;39.30;;;;;;6154443;28;83648;-69
2021/03/31 04:08:33;;;;;;;21.60;12.55;;;23.60;39.40;;;;;;6156476;27;86854;-70
2021/03/31 04:11:33;;;;;;;19.80;12.23;;;23.60;39.50;;;;;;6151073;27;83470;-70
2021/03/31 04:14:34;;;;;;;21.23;12.38;;;23.70;39.70;;;;;;6147612;27;83467;-70
2021/03/31 04:17:34;;;;;;;24.08;12.82;;;23.70;39.80;;;;;;6152755;28;83485;-70
2021/03/31 04:20:35;;;;;;;18.65;11.77;;;23.70;39.70;;;;;;6148755;27;83932;-70
2021/03/31 04:23:35;;;;;;;18.60;11.60;;;23.70;39.70;;;;;;6151478;28;83711;-67
2021/03/31 04:26:36;;;;;;;18.98;11.13;;;23.70;39.80;;;;;;6151943;27;83676;-69
2021/03/31 04:29:36;;;;;;;21.00;11.80;;;23.70;39.70;;;;;;6153871;28;83634;-69
2021/03/31 04:32:37;;;;;;;22.33;12.75;;;23.70;39.70;;;;;;6151610;27;83133;-68
2021/03/31 04:35:38;;;;;;;20.38;12.18;;;23.80;39.70;;;;;;6152277;28;83241;-67
2021/03/31 04:38:38;;;;;;;21.73;11.80;;;23.80;39.60;;;;;;6149711;28;82909;-66
2021/03/31 04:41:39;;;;;;;19.33;11.80;;;23.70;39.60;;;;;;6147109;27;83038;-68
2021/03/31 04:44:39;;;;;;;17.10;11.27;;;23.80;39.70;;;;;;6165842;27;83034;-72
2021/03/31 04:47:40;;;;;;;20.17;12.30;;;23.80;39.60;;;;;;6156048;27;83215;-69
2021/03/31 04:50:40;;;;;;;20.42;13.18;;;23.70;39.70;;;;;;6153161;27;82868;-69
2021/03/31 04:53:41;;;;;;;20.05;12.48;;;23.70;39.90;;;;;;6153026;28;84283;-67
2021/03/31 04:56:41;;;;;;;18.30;11.63;;;23.70;39.70;;;;;;6150474;27;85209;-66
2021/03/31 04:59:42;;;;;;;22.88;12.95;;;23.80;39.90;;;;;;6151921;28;84381;-68
2021/03/31 05:02:42;;;;;;;22.65;13.20;;;23.80;39.90;;;;;;6157228;28;82874;-67
2021/03/31 05:05:43;;;;;;;17.38;11.32;;;23.80;39.90;;;;;;6148491;27;83146;-66
2021/03/31 05:08:43;;;;;;;20.88;12.13;;;23.80;40.10;;;;;;6153429;28;83417;-70
2021/03/31 05:11:44;;;;;;;18.52;11.55;;;23.80;40.40;;;;;;6150752;27;83009;-70
2021/03/31 05:14:44;;;;;;;17.92;10.25;;;23.80;40.90;;;;;;6155090;27;83298;-70
2021/03/31 05:17:45;;;;;;;15.27;8.63;;;23.70;41.20;;;;;;6153676;27;86799;-71
2021/03/31 05:20:45;;;;;;;12.57;7.47;;;23.70;41.40;;;;;;6162391;27;82982;-71
2021/03/31 05:23:46;;;;;;;9.95;5.97;;;23.70;41.30;;;;;;6149782;27;80593;-71
2021/03/31 05:26:47;;;;;;;10.43;6.60;;;23.60;41.50;;;;;;6169183;27;80998;-72
2021/03/31 05:29:47;;;;;;;10.20;6.65;;;23.60;42.00;;;;;;6146299;27;80756;-72
2021/03/31 05:32:48;;;;;;;12.25;7.32;;;23.70;42.40;;;;;;6147484;28;80455;-70
2021/03/31 05:35:48;;;;;;;13.07;8.48;;;23.80;42.60;;;;;;6148843;27;81681;-70
2021/03/31 05:38:49;;;;;;;11.48;7.63;;;23.80;42.80;;;;;;6159023;28;80446;-69
2021/03/31 05:41:49;;;;;;;16.35;8.45;;;23.90;42.90;;;;;;6153345;27;80447;-72
2021/03/31 05:44:50;;;;;;;15.68;8.45;;;23.90;42.80;;;;;;6154119;27;83824;-71
2021/03/31 05:47:50;;;;;;;15.73;8.75;;;23.90;42.80;;;;;;6158023;28;80301;-75
2021/03/31 05:50:51;;;;;;;18.95;9.75;;;23.90;42.60;;;;;;6146768;27;82993;-76
2021/03/31 05:53:51;;;;;;;18.15;9.57;;;23.80;42.70;;;;;;6160730;27;80896;-71
2021/03/31 05:56:52;;;;;;;15.27;9.15;;;23.80;42.90;;;;;;6152480;28;80564;-69
2021/03/31 05:59:53;;;;;;;20.00;10.20;;;23.90;43.40;;;;;;6152061;27;80247;-68
2021/03/31 06:02:53;;;;;;;14.18;9.50;;;23.90;43.20;;;;;;6144507;28;83204;-69
2021/03/31 06:05:54;;;;;;;19.02;10.30;;;23.90;43.30;;;;;;6163398;27;83008;-70
2021/03/31 06:08:54;;;;;;;22.00;11.13;;;23.90;43.60;;;;;;6145542;27;83540;-72
2021/03/31 06:11:59;;;;;;;24.23;10.98;;;24.00;43.30;;;;;;6150532;27;85269;-72
2021/03/31 06:15:00;;;;;;;21.30;9.55;;;24.00;43.90;;;;;;6152188;28;83037;-69
2021/03/31 06:18:00;;;;;;;18.73;11.00;;;24.00;43.50;;;;;;6145722;28;86178;-71
2021/03/31 06:21:01;;;;;;;18.38;10.77;;;24.10;43.70;;;;;;6144261;27;83458;-70
2021/03/31 06:24:12;;;;;;;17.50;9.65;;;24.00;44.50;;;;;;6149028;28;83554;-69
2021/03/31 06:27:13;;;;;;;23.40;11.38;;;24.00;43.60;;;;;;6150679;28;82981;-69
2021/03/31 06:30:13;;;;;;;21.95;10.05;;;24.00;43.50;;;;;;6153676;27;83382;-70
2021/03/31 06:33:14;;;;;;;136.95;56.88;;;24.00;43.80;;;;;;6147424;27;83471;-69
2021/03/31 06:36:15;;;;;;;413.88;159.85;;;24.10;43.50;;;;;;6144623;28;84516;-72
2021/03/31 06:39:15;;;;;;;346.52;132.00;;;24.00;43.80;;;;;;6148993;27;85947;-69
2021/03/31 06:42:22;;;;;;;275.90;109.88;;;24.00;43.70;;;;;;6158010;27;86442;-70
2021/03/31 06:45:23;;;;;;;302.00;114.50;;;24.00;43.70;;;;;;6147339;27;86016;-70
2021/03/31 06:48:26;;;;;;;499.42;204.75;;;24.00;43.50;;;;;;6151458;28;85443;-71
2021/03/31 06:51:27;;;;;;;561.90;235.25;;;24.00;43.80;;;;;;6143640;28;85498;-71
2021/03/31 06:54:28;;;;;;;635.70;279.17;;;24.00;44.00;;;;;;6142904;28;85552;-71
2021/03/31 06:57:29;;;;;;;621.88;276.48;;;24.00;44.00;;;;;;6154634;27;85408;-70
2021/03/31 07:00:29;;;;;;;534.53;218.70;;;24.00;43.70;;;;;;6144636;28;86074;-73
2021/03/31 07:03:30;;;;;;;506.05;192.13;;;24.10;43.80;;;;;;6141203;27;85648;-71
2021/03/31 07:06:30;;;;;;;437.00;165.20;;;24.10;43.30;;;;;;6145275;28;89498;-68
2021/03/31 07:09:31;;;;;;;310.85;128.93;;;24.10;42.80;;;;;;6142802;27;86172;-71
2021/03/31 07:12:31;;;;;;;280.27;111.57;;;24.00;42.90;;;;;;6148101;27;86136;-74
2021/03/31 07:15:32;;;;;;;216.05;87.75;;;24.00;42.80;;;;;;6153571;28;85571;-71
2021/03/31 07:18:32;;;;;;;213.35;84.10;;;24.00;42.00;;;;;;6144331;27;85429;-70
2021/03/31 07:21:33;;;;;;;169.30;71.75;;;24.00;42.40;;;;;;6153781;27;83953;-71
2021/03/31 07:24:33;;;;;;;151.45;62.05;;;24.00;42.70;;;;;;6151377;27;84051;-70
2021/03/31 07:27:34;;;;;;;144.02;60.10;;;23.90;41.60;;;;;;6147270;27;83592;-69
2021/03/31 07:30:35;;;;;;;128.35;52.25;;;23.90;41.90;;;;;;6122557;27;82994;-76
2021/03/31 07:33:36;;;;;;;97.30;43.00;;;23.90;41.80;;;;;;6152582;27;83523;-68
2021/03/31 07:36:36;;;;;;;89.63;40.17;;;23.90;41.70;;;;;;6157346;28;84067;-70
2021/03/31 07:39:37;;;;;;;77.97;37.08;;;23.90;41.60;;;;;;6161534;27;83945;-70
2021/03/31 07:42:37;;;;;;;98.43;40.78;;;23.90;41.90;;;;;;6152651;27;83165;-70
2021/03/31 07:45:38;;;;;;;81.93;38.45;;;23.90;42.30;;;;;;6126351;27;83397;-69
2021/03/31 07:48:39;;;;;;;83.82;35.78;;;24.00;42.20;;;;;;6151697;28;83405;-70
2021/03/31 07:51:39;;;;;;;76.40;32.72;;;24.00;41.90;;;;;;6153772;27;84128;-69
2021/03/31 07:54:40;;;;;;;77.80;35.05;;;24.00;41.90;;;;;;6156668;27;82904;-68
2021/03/31 07:57:40;;;;;;;76.13;32.72;;;24.10;43.20;;;;;;6147665;27;83787;-68
2021/03/31 08:00:41;;;;;;;62.92;30.17;;;24.10;43.00;;;;;;6151801;27;83762;-70
2021/03/31 08:03:41;;;;;;;62.72;30.52;;;24.10;43.40;;;;;;6153135;28;83266;-69
2021/03/31 08:06:42;;;;;;;53.22;26.20;;;24.10;43.40;;;;;;6150551;27;83033;-72
2021/03/31 08:09:43;;;;;;;58.03;25.35;;;24.00;43.60;;;;;;6152755;27;84089;-70
2021/03/31 08:12:43;;;;;;;50.85;24.67;;;24.10;43.80;;;;;;6154317;27;84174;-71
2021/03/31 08:15:44;;;;;;;55.38;23.65;;;24.10;44.20;;;;;;6150520;28;83333;-73
2021/03/31 08:18:44;;;;;;;55.28;24.88;;;24.10;44.10;;;;;;6146396;27;83441;-72
2021/03/31 08:21:45;;;;;;;43.90;21.98;;;24.10;44.40;;;;;;6152770;27;83241;-69
2021/03/31 08:24:45;;;;;;;42.95;22.00;;;24.10;44.10;;;;;;6127944;27;84277;-73
2021/03/31 08:27:46;;;;;;;42.30;21.40;;;24.10;44.10;;;;;;6156654;28;84716;-69
2021/03/31 08:30:46;;;;;;;48.25;22.67;;;24.10;46.00;;;;;;6152951;28;84438;-70
2021/03/31 08:33:47;;;;;;;41.53;20.60;;;24.20;46.30;;;;;;6150524;27;83302;-74
2021/03/31 08:36:48;;;;;;;36.55;19.15;;;24.20;48.30;;;;;;6151163;28;84840;-71
2021/03/31 08:39:48;;;;;;;39.35;20.20;;;24.20;46.20;;;;;;6156453;27;83877;-73
2021/03/31 08:42:49;;;;;;;40.20;18.85;;;24.20;45.50;;;;;;6154421;28;83882;-72
2021/03/31 08:45:53;;;;;;;46.88;19.00;;;24.30;44.90;;;;;;6149100;27;83237;-71
2021/03/31 08:48:54;;;;;;;39.25;18.65;;;24.30;44.80;;;;;;6151755;27;84340;-71
2021/03/31 08:51:55;;;;;;;28.50;15.75;;;24.30;44.20;;;;;;6152921;27;84324;-71
2021/03/31 08:54:55;;;;;;;28.67;15.55;;;24.30;44.50;;;;;;6152052;28;83982;-70
2021/03/31 08:57:56;;;;;;;33.05;16.58;;;24.30;44.20;;;;;;6147486;28;83344;-70
2021/03/31 09:00:56;;;;;;;28.00;14.40;;;24.30;44.10;;;;;;6148128;27;83205;-70
2021/03/31 09:03:57;;;;;;;27.83;14.63;;;24.30;44.10;;;;;;6151899;28;83571;-71
2021/03/31 09:06:57;;;;;;;24.98;13.50;;;24.30;43.80;;;;;;6161289;27;83192;-71
2021/03/31 09:09:58;;;;;;;30.42;13.77;;;24.30;43.70;;;;;;6151560;28;82950;-71
2021/03/31 09:12:58;;;;;;;30.83;14.80;;;24.30;42.80;;;;;;6153352;28;84082;-71
2021/03/31 09:15:59;;;;;;;26.27;12.93;;;24.30;42.40;;;;;;6156498;28;83229;-70
2021/03/31 09:19:00;;;;;;;23.60;12.02;;;24.20;42.20;;;;;;6144442;28;83998;-71
2021/03/31 09:22:00;;;;;;;28.05;13.27;;;24.30;42.40;;;;;;6146273;27;83295;-70
2021/03/31 09:25:01;;;;;;;20.83;12.18;;;24.30;43.40;;;;;;6161593;28;86130;-69
2021/03/31 09:28:01;;;;;;;22.58;11.88;;;24.30;45.40;;;;;;6155419;27;84112;-70
2021/03/31 09:31:07;;;;;;;23.33;12.02;;;24.30;43.20;;;;;;6144967;27;85061;-72
2021/03/31 09:34:08;;;;;;;21.45;12.45;;;24.40;43.30;;;;;;6151246;27;84152;-75
2021/03/31 09:37:10;;;;;;;20.02;11.38;;;24.40;43.20;;;;;;6154437;27;83234;-70
2021/03/31 09:40:10;;;;;;;20.25;10.65;;;24.40;43.90;;;;;;6151566;28;83878;-71
2021/03/31 09:43:11;;;;;;;17.98;9.88;;;24.40;44.50;;;;;;6150739;27;83563;-72
2021/03/31 09:46:11;;;;;;;20.27;10.63;;;24.40;44.60;;;;;;6154944;28;83123;-72
2021/03/31 09:49:12;;;;;;;20.67;10.10;;;24.40;44.50;;;;;;6148341;27;83719;-71
2021/03/31 09:52:12;;;;;;;26.98;10.93;;;24.40;44.30;;;;;;6152490;28;84194;-71
2021/03/31 09:55:13;;;;;;;15.82;9.80;;;24.50;44.90;;;;;;6155577;27;83020;-71
2021/03/31 09:58:14;;;;;;;25.63;11.73;;;24.50;44.90;;;;;;6137427;27;85951;-78
2021/03/31 10:01:14;;;;;;;18.27;9.95;;;24.50;45.70;;;;;;6150084;27;83634;-71
2021/03/31 10:04:15;;;;;;;18.77;9.45;;;24.50;44.30;;;;;;6144513;28;89431;-72
2021/03/31 10:07:16;;;;;;;16.15;8.85;;;24.50;44.80;;;;;;6150418;27;85339;-70
2021/03/31 10:10:16;;;;;;;18.85;8.93;;;24.50;44.70;;;;;;6153630;28;84869;-69
2021/03/31 10:13:17;;;;;;;18.00;8.45;;;24.60;45.30;;;;;;6152010;27;81507;-69
2021/03/31 10:16:18;;;;;;;12.52;7.50;;;24.60;44.30;;;;;;6155320;28;82564;-70
2021/03/31 10:19:18;;;;;;;15.95;8.57;;;24.60;44.30;;;;;;6148140;28;80660;-70
2021/03/31 10:22:19;;;;;;;18.13;7.72;;;24.70;44.40;;;;;;6150887;28;80635;-72
2021/03/31 10:25:19;;;;;;;17.92;8.75;;;24.70;44.10;;;;;;6146448;27;81109;-71
2021/03/31 10:28:20;;;;;;;15.98;6.93;;;24.70;43.90;;;;;;6139451;28;81956;-71
2021/03/31 10:31:20;;;;;;;19.08;7.88;;;24.60;43.70;;;;;;6148224;27;80811;-71
2021/03/31 10:34:21;;;;;;;15.20;6.75;;;24.60;43.50;;;;;;6154962;28;80810;-68
2021/03/31 10:37:30;;;;;;;12.18;6.85;;;24.60;43.80;;;;;;6153251;27;81623;-69
2021/03/31 10:41:12;;;;;;;15.63;6.45;;;24.60;43.30;;;;;;6152750;28;80870;-71
2021/03/31 10:57:12;;;;;;;13.63;6.50;;;24.70;42.40;;;;;;6148837;27;80582;-71
2021/03/31 11:00:13;;;;;;;14.90;6.47;;;24.80;42.40;;;;;;6146998;27;83475;-69
2021/03/31 11:03:13;;;;;;;14.98;6.03;;;24.80;42.50;;;;;;6150040;27;82727;-68
2021/03/31 11:06:14;;;;;;;14.82;6.78;;;24.80;42.60;;;;;;6149425;28;81240;-72
2021/03/31 11:09:14;;;;;;;14.18;5.70;;;24.80;42.30;;;;;;6162350;27;80628;-73
2021/03/31 11:12:15;;;;;;;17.35;6.93;;;24.70;42.00;;;;;;6150537;28;81463;-71
2021/03/31 11:15:19;;;;;;;12.85;5.70;;;24.70;41.60;;;;;;6156042;27;80848;-72
2021/03/31 11:27:58;;;;;;;16.55;6.15;;;24.70;40.80;;;;;;6141412;27;81375;-73
2021/03/31 11:30:59;;;;;;;11.27;5.18;;;24.70;39.70;;;;;;6133807;28;83611;-73
2021/03/31 11:34:00;;;;;;;8.93;5.18;;;24.70;39.70;;;;;;6149430;27;82132;-73
2021/03/31 11:37:01;;;;;;;7.38;4.45;;;24.80;39.60;;;;;;6153284;28;81056;-74
2021/03/31 11:40:01;;;;;;;7.18;4.03;;;24.80;39.60;;;;;;6146803;27;81023;-73
2021/03/31 11:43:02;;;;;;;10.75;4.28;;;24.80;39.40;;;;;;6158617;27;80549;-73
2021/03/31 11:46:02;;;;;;;5.57;3.15;;;24.90;39.90;;;;;;6153259;28;81636;-72
2021/03/31 11:49:03;;;;;;;9.88;4.22;;;24.90;40.20;;;;;;6169890;27;86886;-72
2021/03/31 11:52:03;;;;;;;7.82;3.20;;;24.90;39.10;;;;;;6152089;28;80720;-72
2021/03/31 11:55:04;;;;;;;5.43;3.67;;;24.90;39.50;;;;;;6147480;27;83381;-73
2021/03/31 11:58:05;;;;;;;11.35;3.42;;;24.90;39.80;;;;;;6153134;27;81460;-72
2021/03/31 12:01:05;;;;;;;8.25;4.18;;;24.90;40.20;;;;;;6157554;27;82187;-73
2021/03/31 12:04:06;;;;;;;9.02;4.00;;;24.90;39.90;;;;;;6159057;27;80516;-72
2021/03/31 12:07:08;;;;;;;8.93;4.82;;;24.80;40.00;;;;;;6160565;27;82015;-74
2021/03/31 12:10:09;;;;;;;6.38;3.85;;;24.90;40.00;;;;;;6153325;28;80515;-72
2021/03/31 12:13:10;;;;;;;8.25;3.92;;;24.90;39.80;;;;;;6152362;27;80624;-73
2021/03/31 12:16:10;;;;;;;8.57;4.18;;;24.90;40.00;;;;;;6155516;27;81373;-74
2021/03/31 12:19:11;;;;;;;9.77;4.10;;;24.90;40.60;;;;;;6150028;28;80952;-75
2021/03/31 12:22:11;;;;;;;6.63;4.50;;;24.90;39.90;;;;;;6150844;27;82093;-74
2021/03/31 12:25:12;;;;;;;11.52;4.78;;;24.90;39.70;;;;;;6149795;28;81309;-73
2021/03/31 12:28:13;;;;;;;10.32;5.05;;;25.00;40.40;;;;;;6149980;28;80656;-74
2021/03/31 12:31:13;;;;;;;10.98;5.22;;;25.00;39.60;;;;;;6150461;28;81435;-75
2021/03/31 12:34:14;;;;;;;6.97;3.85;;;25.00;39.60;;;;;;6156287;27;81758;-73
2021/03/31 12:37:15;;;;;;;7.18;4.15;;;25.10;39.80;;;;;;6160699;27;81876;-72
2021/03/31 12:40:15;;;;;;;5.75;4.13;;;25.00;39.90;;;;;;6154092;28;80631;-75
2021/03/31 12:43:16;;;;;;;5.32;3.67;;;25.00;39.50;;;;;;6152586;28;80948;-75
2021/03/31 12:46:16;;;;;;;5.25;3.58;;;24.90;40.40;;;;;;6159329;27;80553;-73
2021/03/31 12:49:17;;;;;;;8.68;3.97;;;24.90;40.10;;;;;;6159832;27;80838;-73
2021/03/31 12:52:43;;;;;;;7.57;3.92;;;24.90;39.60;;;;;;6153796;28;82933;-74
2021/03/31 12:55:46;;;;;;;5.55;3.50;;;24.90;40.00;;;;;;6149829;27;86195;-77
2021/03/31 12:58:46;;;;;;;8.93;4.10;;;24.90;39.20;;;;;;6156510;27;81136;-75
2021/03/31 13:01:47;;;;;;;7.72;3.28;;;24.90;39.80;;;;;;6156462;27;80663;-72
2021/03/31 13:04:47;;;;;;;12.95;3.45;;;24.80;40.10;;;;;;6150731;27;81080;-74
2021/03/31 13:07:49;;;;;;;13.15;3.70;;;24.90;40.70;;;;;;6157538;28;84102;-74
2021/03/31 13:10:49;;;;;;;9.68;3.35;;;24.90;40.40;;;;;;6158931;27;80633;-75
2021/03/31 13:14:19;;;;;;;4.70;3.10;;;24.90;40.60;;;;;;6154104;28;81284;-73
2021/03/31 13:17:24;;;;;;;10.68;3.95;;;25.00;41.10;;;;;;6158447;27;80583;-72
2021/03/31 13:27:13;;;;;;;6.25;3.10;;;25.00;41.20;;;;;;6154493;27;80449;-75
2021/03/31 13:30:33;;;;;;;3.63;2.47;;;24.90;41.50;;;;;;6155975;27;82755;-73
2021/03/31 13:33:38;;;;;;;3.75;2.65;;;24.90;42.20;;;;;;6162923;28;81429;-74
2021/03/31 13:36:47;;;;;;;5.78;2.80;;;25.00;41.80;;;;;;6149589;27;80970;-74
2021/03/31 13:39:52;;;;;;;4.53;2.83;;;25.00;41.80;;;;;;6156841;28;80402;-73
2021/03/31 13:42:52;;;;;;;8.05;2.80;;;25.00;41.90;;;;;;6160041;27;80987;-72
2021/03/31 13:45:53;;;;;;;8.23;3.30;;;25.00;42.50;;;;;;6154430;27;81308;-73
2021/03/31 13:52:10;;;;;;;5.30;2.60;;;25.00;42.50;;;;;;6159407;27;82325;-73
2021/03/31 13:55:13;;;;;;;3.78;2.67;;;25.00;42.40;;;;;;6130896;28;81242;-72
2021/03/31 13:58:14;;;;;;;7.93;3.20;;;25.10;42.10;;;;;;6155161;27;81112;-72
2021/03/31 14:01:14;;;;;;;4.50;2.65;;;25.10;41.90;;;;;;6150902;28;80522;-76
2021/03/31 14:04:15;;;;;;;5.55;3.00;;;25.10;41.80;;;;;;6147217;28;82199;-75
2021/03/31 14:07:15;;;;;;;5.55;3.00;;;25.10;41.30;;;;;;6154190;27;80643;-75
2021/03/31 14:10:16;;;;;;;4.75;2.90;;;25.10;41.40;;;;;;6151783;28;81441;-73
2021/03/31 14:13:16;;;;;;;5.32;3.33;;;25.00;40.80;;;;;;6149463;27;81905;-73
2021/03/31 14:16:17;;;;;;;4.60;2.70;;;25.00;40.90;;;;;;6149155;27;80576;-74
2021/03/31 14:19:19;;;;;;;6.32;3.08;;;25.10;41.60;;;;;;6151885;27;83149;-73
2021/03/31 14:22:19;;;;;;;8.63;3.40;;;25.10;41.10;;;;;;6158347;27;85976;-70
2021/03/31 14:25:21;;;;;;;8.13;3.30;;;25.00;41.00;;;;;;6151493;27;81301;-74
2021/03/31 14:28:22;;;;;;;6.60;2.95;;;25.10;41.60;;;;;;6156970;28;80803;-69
2021/03/31 14:31:22;;;;;;;5.55;3.08;;;25.00;40.90;;;;;;6155754;27;80755;-72
2021/03/31 14:34:23;;;;;;;4.32;3.03;;;25.00;40.90;;;;;;6148884;27;83436;-72
2021/03/31 14:37:23;;;;;;;11.63;3.17;;;25.00;40.80;;;;;;6155824;27;81969;-72
2021/03/31 14:40:24;;;;;;;7.95;3.17;;;25.10;41.30;;;;;;6155545;27;80894;-73
2021/03/31 14:43:25;;;;;;;4.22;2.80;;;25.10;40.90;;;;;;6148932;28;81093;-72
2021/03/31 14:46:25;;;;;;;6.75;2.78;;;25.10;40.70;;;;;;6156337;27;81185;-71
2021/03/31 14:49:27;;;;;;;7.35;3.70;;;25.10;40.20;;;;;;6142916;27;81244;-72
2021/03/31 15:02:26;;;;;;;7.30;4.03;;;24.90;41.00;;;;;;6149742;27;82094;-73
2021/03/31 15:05:27;;;;;;;8.60;3.72;;;24.90;40.00;;;;;;6160493;28;80570;-72
2021/03/31 15:08:27;;;;;;;6.75;3.47;;;25.00;40.00;;;;;;6153595;27;80931;-71
2021/03/31 15:11:28;;;;;;;4.88;3.33;;;25.00;41.50;;;;;;6151642;27;83383;-73
2021/03/31 15:14:29;;;;;;;13.25;3.42;;;25.00;40.40;;;;;;6153611;27;80612;-72
2021/03/31 15:17:29;;;;;;;7.47;3.30;;;25.00;40.40;;;;;;6150582;28;80887;-70
2021/03/31 15:23:44;;;;;;;6.50;3.38;;;24.90;41.10;;;;;;6152455;27;80751;-70
2021/03/31 15:26:45;;;;;;;12.32;3.75;;;24.90;40.80;;;;;;6153588;27;80802;-72
2021/03/31 15:29:45;;;;;;;5.90;3.65;;;25.00;41.40;;;;;;6143869;28;80967;-72
2021/03/31 15:32:46;;;;;;;5.32;3.10;;;25.00;40.90;;;;;;6150492;28;81006;-72
2021/03/31 15:35:46;;;;;;;7.15;3.70;;;25.10;40.90;;;;;;6151235;27;81520;-72
2021/03/31 15:38:47;;;;;;;7.75;3.50;;;25.00;40.80;;;;;;6149509;27;81268;-79
2021/03/31 15:41:48;;;;;;;8.05;3.78;;;25.00;40.90;;;;;;6144959;27;80333;-74
2021/03/31 15:44:49;;;;;;;7.75;3.58;;;24.90;40.50;;;;;;6154437;27;82557;-74
2021/03/31 15:47:50;;;;;;;5.25;3.45;;;24.90;40.90;;;;;;6150105;27;80480;-74
2021/03/31 15:50:50;;;;;;;6.00;2.92;;;24.90;40.90;;;;;;6152233;28;80944;-72
2021/03/31 15:53:51;;;;;;;7.07;3.75;;;24.80;41.00;;;;;;6152929;28;80956;-82
2021/03/31 15:56:51;;;;;;;4.80;3.17;;;24.80;41.20;;;;;;6158670;27;80818;-74
2021/03/31 15:59:52;;;;;;;7.32;3.55;;;24.80;41.40;;;;;;6141409;27;80734;-75
2021/03/31 16:03:37;;;;;;;8.05;3.63;;;24.90;41.00;;;;;;6144459;27;81652;-75
2021/03/31 16:06:17;;;;;;;10.18;3.70;;;24.90;41.40;;;;;;6146185;27;81606;-75
2021/03/31 16:09:18;;;;;;;8.50;3.03;;;24.90;41.30;;;;;;6154158;27;80508;-74
2021/03/31 16:12:18;;;;;;;13.13;3.92;;;25.00;40.90;;;;;;6167754;28;81745;-75